Time;durP1;ratioP1;P1;durP2;ratioP2;P2;SDS_P1;SDS_P2;PMS_P1;PMS_P2;Temp;Humidity;BMP_temperature;BMP_pressure;BME280_temperature;BME280_humidity;BME280_pressure;Samples;Min_cycle;Max_cycle;Signal;HPM_P1;HPM_P2
2023/04/06 00:01:38;;;;;;;143.13;8.63;;;;;;;;;;5016480;28;20423;-56
2023/04/06 00:04:03;;;;;;;161.38;8.77;;;;;;;;;;5018392;28;20041;-55
2023/04/06 00:06:29;;;;;;;181.27;8.18;;;;;;;;;;5015115;28;20034;-56
2023/04/06 00:08:55;;;;;;;163.05;8.77;;;;;;;;;;5017790;28;20100;-55
2023/04/06 00:11:20;;;;;;;174.30;9.50;;;;;;;;;;5016052;28;20444;-56
2023/04/06 00:13:46;;;;;;;140.63;7.47;;;;;;;;;;5020732;28;20021;-54
2023/04/06 00:16:11;;;;;;;259.50;11.88;;;;;;;;;;5018318;28;20132;-56
2023/04/06 00:18:36;;;;;;;146.13;8.20;;;;;;;;;;5016968;28;20075;-54
2023/04/06 00:21:02;;;;;;;162.25;8.30;;;;;;;;;;5015963;28;20069;-56
2023/04/06 00:23:27;;;;;;;182.73;8.77;;;;;;;;;;5017916;28;20068;-56
2023/04/06 00:25:52;;;;;;;179.95;8.35;;;;;;;;;;5015191;28;20045;-54
2023/04/06 00:28:20;;;;;;;162.80;8.13;;;;;;;;;;5019638;28;20059;-56
2023/04/06 00:30:45;;;;;;;143.10;8.77;;;;;;;;;;5015190;28;20463;-57
2023/04/06 00:33:10;;;;;;;150.77;8.80;;;;;;;;;;5018521;28;20030;-56
2023/04/06 00:35:36;;;;;;;135.98;7.65;;;;;;;;;;5018337;28;20386;-57
2023/04/06 00:38:01;;;;;;;171.48;9.18;;;;;;;;;;5014459;28;20033;-57
2023/04/06 00:40:28;;;;;;;147.00;7.45;;;;;;;;;;5014995;28;20159;-58
2023/04/06 00:42:53;;;;;;;187.55;9.18;;;;;;;;;;5015516;28;20017;-54
2023/04/06 00:45:19;;;;;;;157.73;8.35;;;;;;;;;;5013908;28;20377;-54
2023/04/06 00:47:44;;;;;;;129.43;8.05;;;;;;;;;;5013912;28;20063;-54
2023/04/06 00:50:09;;;;;;;186.07;9.13;;;;;;;;;;5014989;28;20096;-56
2023/04/06 00:52:35;;;;;;;168.52;8.85;;;;;;;;;;5015659;28;20196;-57
2023/04/06 00:55:01;;;;;;;138.52;7.32;;;;;;;;;;5015579;28;20025;-58
2023/04/06 00:57:26;;;;;;;150.65;8.27;;;;;;;;;;5014750;28;20037;-54
2023/04/06 00:59:52;;;;;;;135.77;7.60;;;;;;;;;;5016633;28;20126;-54
2023/04/06 01:02:18;;;;;;;162.88;9.18;;;;;;;;;;5018098;28;20037;-54
2023/04/06 01:04:43;;;;;;;179.63;8.43;;;;;;;;;;5018337;28;20072;-55
2023/04/06 01:07:08;;;;;;;174.18;9.30;;;;;;;;;;5017008;28;20158;-55
2023/04/06 01:09:34;;;;;;;188.40;9.75;;;;;;;;;;5018639;28;20052;-54
2023/04/06 01:11:59;;;;;;;153.48;8.73;;;;;;;;;;5017203;28;20034;-55
2023/04/06 01:14:25;;;;;;;158.55;9.15;;;;;;;;;;5014171;28;20478;-57
2023/04/06 01:16:51;;;;;;;126.38;7.60;;;;;;;;;;5014683;28;20029;-55
2023/04/06 01:19:16;;;;;;;153.88;8.73;;;;;;;;;;5017133;28;20022;-55
2023/04/06 01:21:42;;;;;;;192.15;9.50;;;;;;;;;;5017387;28;20061;-55
2023/04/06 01:24:07;;;;;;;143.43;8.80;;;;;;;;;;5016994;28;20021;-54
2023/04/06 01:26:33;;;;;;;167.25;9.48;;;;;;;;;;5018930;28;20137;-56
2023/04/06 01:28:58;;;;;;;189.73;9.93;;;;;;;;;;5016512;28;20517;-56
2023/04/06 01:31:24;;;;;;;135.57;8.23;;;;;;;;;;5017205;28;20053;-54
2023/04/06 01:33:50;;;;;;;133.82;7.20;;;;;;;;;;5015901;28;20037;-58
2023/04/06 01:36:15;;;;;;;195.02;10.60;;;;;;;;;;5017786;28;20406;-57
2023/04/06 01:38:41;;;;;;;123.05;7.10;;;;;;;;;;5017096;28;20021;-56
2023/04/06 01:41:07;;;;;;;164.18;8.52;;;;;;;;;;5015709;28;20034;-54
2023/04/06 01:43:32;;;;;;;132.05;8.30;;;;;;;;;;5018171;28;20522;-56
2023/04/06 01:45:57;;;;;;;159.18;8.68;;;;;;;;;;5014762;28;20033;-56
2023/04/06 01:48:22;;;;;;;170.23;9.23;;;;;;;;;;5016396;28;20041;-57
2023/04/06 01:50:47;;;;;;;148.85;9.00;;;;;;;;;;5017356;28;20087;-56
2023/04/06 01:53:13;;;;;;;118.88;7.00;;;;;;;;;;5021448;28;20022;-57
2023/04/06 01:55:38;;;;;;;141.75;6.88;;;;;;;;;;5025064;28;20261;-57
2023/04/06 01:58:03;;;;;;;146.52;8.88;;;;;;;;;;5020524;28;20029;-57
2023/04/06 02:00:29;;;;;;;182.25;9.73;;;;;;;;;;5020578;28;20037;-55
2023/04/06 02:02:54;;;;;;;139.88;7.82;;;;;;;;;;5022010;28;20544;-55
2023/04/06 02:05:20;;;;;;;138.13;8.93;;;;;;;;;;5019423;28;20036;-59
2023/04/06 02:07:45;;;;;;;168.73;8.27;;;;;;;;;;5020798;28;20432;-56
2023/04/06 02:10:12;;;;;;;133.20;8.60;;;;;;;;;;5019699;28;20059;-54
2023/04/06 02:12:37;;;;;;;151.13;8.25;;;;;;;;;;5020356;28;20159;-54
2023/04/06 02:15:03;;;;;;;160.10;8.52;;;;;;;;;;5019346;28;20132;-57
2023/04/06 02:17:28;;;;;;;127.68;7.28;;;;;;;;;;5017635;28;20080;-55
2023/04/06 02:19:53;;;;;;;159.48;8.25;;;;;;;;;;5017626;28;20033;-56
2023/04/06 02:22:18;;;;;;;128.85;7.10;;;;;;;;;;5019486;28;20492;-56
2023/04/06 02:24:44;;;;;;;148.52;8.82;;;;;;;;;;5021913;28;20155;-54
2023/04/06 02:27:10;;;;;;;169.52;9.43;;;;;;;;;;5017833;28;20252;-54
2023/04/06 02:29:35;;;;;;;147.40;9.10;;;;;;;;;;5018956;28;20044;-57
2023/04/06 02:32:00;;;;;;;117.85;8.15;;;;;;;;;;5020737;28;20195;-55
2023/04/06 02:34:25;;;;;;;133.77;8.30;;;;;;;;;;5018289;28;20033;-55
2023/04/06 02:36:51;;;;;;;144.18;8.30;;;;;;;;;;5019073;28;20041;-56
2023/04/06 02:39:17;;;;;;;152.90;7.65;;;;;;;;;;5018178;28;20076;-55
2023/04/06 02:41:42;;;;;;;150.20;8.45;;;;;;;;;;5018765;28;20131;-57
2023/04/06 02:44:08;;;;;;;151.55;8.20;;;;;;;;;;5019928;28;20037;-56
2023/04/06 02:46:34;;;;;;;173.10;9.05;;;;;;;;;;5016994;28;20040;-57
2023/04/06 02:49:00;;;;;;;180.48;8.30;;;;;;;;;;5018179;28;20030;-56
2023/04/06 02:51:25;;;;;;;142.27;7.75;;;;;;;;;;5021381;28;20048;-58
2023/04/06 02:53:51;;;;;;;149.80;8.05;;;;;;;;;;5018748;28;20053;-57
2023/04/06 02:56:16;;;;;;;230.00;11.32;;;;;;;;;;5019023;28;20046;-55
2023/04/06 02:58:41;;;;;;;174.98;8.57;;;;;;;;;;5018408;28;20016;-55
2023/04/06 03:01:06;;;;;;;139.23;7.80;;;;;;;;;;5017659;28;20060;-55
2023/04/06 03:03:32;;;;;;;132.27;8.13;;;;;;;;;;5020448;28;20029;-56
2023/04/06 03:05:58;;;;;;;149.23;8.30;;;;;;;;;;5020416;28;20503;-54
2023/04/06 03:08:23;;;;;;;137.93;7.88;;;;;;;;;;5021527;28;20098;-54
2023/04/06 03:10:49;;;;;;;139.02;7.65;;;;;;;;;;5017972;28;20443;-54
2023/04/06 03:13:14;;;;;;;130.57;7.68;;;;;;;;;;5018051;28;20369;-55
2023/04/06 03:15:39;;;;;;;152.40;8.82;;;;;;;;;;5018149;28;20424;-57
2023/04/06 03:18:05;;;;;;;150.35;9.40;;;;;;;;;;5017060;28;20284;-58
2023/04/06 03:20:30;;;;;;;152.10;8.80;;;;;;;;;;5017939;28;20468;-55
2023/04/06 03:22:55;;;;;;;146.70;7.90;;;;;;;;;;5018714;28;20038;-56
2023/04/06 03:25:20;;;;;;;183.82;9.55;;;;;;;;;;5018018;28;20545;-58
2023/04/06 03:27:46;;;;;;;137.98;7.63;;;;;;;;;;5016784;28;20314;-58
2023/04/06 03:30:11;;;;;;;134.75;7.60;;;;;;;;;;5015874;28;20029;-56
2023/04/06 03:32:36;;;;;;;156.93;7.55;;;;;;;;;;5013436;28;20038;-58
2023/04/06 03:35:02;;;;;;;140.73;5.80;;;;;;;;;;5015880;28;20897;-58
2023/04/06 03:37:27;;;;;;;122.00;6.50;;;;;;;;;;5014771;28;20074;-59
2023/04/06 03:39:52;;;;;;;136.13;7.20;;;;;;;;;;5014120;28;20441;-56
2023/04/06 03:42:17;;;;;;;129.38;7.38;;;;;;;;;;5018102;28;20037;-54
2023/04/06 03:44:43;;;;;;;182.27;8.43;;;;;;;;;;5018170;28;20064;-55
2023/04/06 03:47:08;;;;;;;142.35;8.55;;;;;;;;;;5015327;28;20033;-59
2023/04/06 03:49:33;;;;;;;160.10;11.27;;;;;;;;;;5017980;28;20028;-57
2023/04/06 03:51:58;;;;;;;173.52;10.57;;;;;;;;;;5015143;28;20025;-59
2023/04/06 03:54:24;;;;;;;139.85;9.40;;;;;;;;;;5016555;28;20072;-57
2023/04/06 03:56:49;;;;;;;131.55;8.27;;;;;;;;;;5017775;28;20406;-58
2023/04/06 03:59:15;;;;;;;158.15;8.88;;;;;;;;;;5016351;28;20029;-57
2023/04/06 04:01:40;;;;;;;160.07;9.27;;;;;;;;;;5016692;28;20088;-56
2023/04/06 04:04:05;;;;;;;132.35;6.60;;;;;;;;;;5015871;28;20330;-55
2023/04/06 04:06:31;;;;;;;133.93;6.50;;;;;;;;;;5017763;28;20042;-55
2023/04/06 04:08:56;;;;;;;168.80;9.57;;;;;;;;;;5017221;28;20514;-59
2023/04/06 04:11:21;;;;;;;154.68;9.10;;;;;;;;;;5018055;28;20040;-57
2023/04/06 04:13:47;;;;;;;141.27;8.63;;;;;;;;;;5018764;28;20396;-57
2023/04/06 04:16:12;;;;;;;203.50;10.52;;;;;;;;;;5016076;28;20049;-54
2023/04/06 04:18:37;;;;;;;165.52;9.88;;;;;;;;;;5016785;28;20500;-54
2023/04/06 04:21:03;;;;;;;147.98;9.10;;;;;;;;;;5016393;28;20039;-55
2023/04/06 04:23:28;;;;;;;130.30;7.85;;;;;;;;;;5018006;28;20021;-56
2023/04/06 04:25:53;;;;;;;130.52;8.00;;;;;;;;;;5016287;28;20495;-56
2023/04/06 04:28:18;;;;;;;151.95;9.85;;;;;;;;;;5014307;28;20040;-55
2023/04/06 04:30:44;;;;;;;185.30;10.15;;;;;;;;;;5015747;28;20117;-54
2023/04/06 04:33:09;;;;;;;150.25;9.00;;;;;;;;;;5016598;28;20018;-56
2023/04/06 04:35:34;;;;;;;160.00;12.23;;;;;;;;;;5017669;28;20033;-57
2023/04/06 04:38:00;;;;;;;173.93;11.65;;;;;;;;;;5014460;28;20534;-57
2023/04/06 04:40:25;;;;;;;138.98;10.88;;;;;;;;;;5015572;28;20061;-55
2023/04/06 04:42:53;;;;;;;144.32;10.38;;;;;;;;;;5016165;28;20665;-56
2023/04/06 04:45:18;;;;;;;151.65;10.25;;;;;;;;;;5019484;28;20024;-55
2023/04/06 04:47:44;;;;;;;165.75;10.68;;;;;;;;;;5017528;28;20020;-56
2023/04/06 04:50:09;;;;;;;185.73;11.18;;;;;;;;;;5017153;28;20489;-57
2023/04/06 04:52:34;;;;;;;137.75;9.55;;;;;;;;;;5017025;28;20022;-55
2023/04/06 04:55:00;;;;;;;117.75;7.38;;;;;;;;;;5012839;28;20021;-58
2023/04/06 04:57:25;;;;;;;166.10;8.07;;;;;;;;;;5014772;28;20449;-56
2023/04/06 04:59:50;;;;;;;146.75;9.15;;;;;;;;;;5014982;28;20456;-56
2023/04/06 05:02:16;;;;;;;124.55;8.98;;;;;;;;;;5015498;28;20428;-54
2023/04/06 05:04:41;;;;;;;152.52;10.23;;;;;;;;;;5017349;28;20547;-56
2023/04/06 05:07:08;;;;;;;141.15;10.35;;;;;;;;;;5015402;28;20076;-55
2023/04/06 05:09:33;;;;;;;173.77;11.23;;;;;;;;;;5013555;28;20025;-55
2023/04/06 05:11:59;;;;;;;164.77;10.88;;;;;;;;;;5017033;28;20084;-54
2023/04/06 05:14:25;;;;;;;156.55;11.45;;;;;;;;;;5016468;28;20060;-57
2023/04/06 05:16:50;;;;;;;186.80;10.95;;;;;;;;;;5013440;28;20038;-58
2023/04/06 05:19:15;;;;;;;155.18;10.18;;;;;;;;;;5015238;28;20419;-55
2023/04/06 05:21:41;;;;;;;140.40;7.60;;;;;;;;;;5015665;28;20599;-57
2023/04/06 05:24:06;;;;;;;142.85;8.40;;;;;;;;;;5020962;28;20022;-57
2023/04/06 05:26:32;;;;;;;154.10;9.00;;;;;;;;;;5020331;28;20405;-57
2023/04/06 05:28:57;;;;;;;174.13;10.35;;;;;;;;;;5019863;28;20078;-58
2023/04/06 05:31:23;;;;;;;122.63;6.45;;;;;;;;;;5021089;28;20045;-56
2023/04/06 05:33:48;;;;;;;143.68;7.72;;;;;;;;;;5020563;28;20029;-56
2023/04/06 05:36:13;;;;;;;235.63;11.10;;;;;;;;;;5020097;28;20349;-58
2023/04/06 05:38:39;;;;;;;149.07;9.35;;;;;;;;;;5053036;28;20021;-57
2023/04/06 05:41:04;;;;;;;130.45;7.63;;;;;;;;;;5021784;28;20038;-56
2023/04/06 05:43:29;;;;;;;128.27;8.48;;;;;;;;;;5021910;28;20117;-56
2023/04/06 05:45:55;;;;;;;114.22;9.40;;;;;;;;;;5019572;28;20476;-58
2023/04/06 05:48:20;;;;;;;141.10;9.27;;;;;;;;;;5021410;28;20045;-57
2023/04/06 05:50:52;;;;;;;155.18;11.50;;;;;;;;;;5022108;28;20591;-57
2023/04/06 05:53:17;;;;;;;130.15;11.05;;;;;;;;;;5020534;28;20432;-59
2023/04/06 05:55:42;;;;;;;164.10;10.80;;;;;;;;;;5019567;28;20873;-58
2023/04/06 05:58:07;;;;;;;156.55;10.43;;;;;;;;;;5018616;28;20594;-58
2023/04/06 06:00:33;;;;;;;138.07;10.15;;;;;;;;;;5020343;28;20030;-57
2023/04/06 06:02:58;;;;;;;110.30;8.60;;;;;;;;;;5021065;28;20672;-58
2023/04/06 06:05:23;;;;;;;104.63;9.18;;;;;;;;;;5020499;28;20029;-56
2023/04/06 06:07:49;;;;;;;153.68;10.90;;;;;;;;;;5018890;28;20041;-57
2023/04/06 06:10:14;;;;;;;123.60;10.10;;;;;;;;;;5018138;28;20053;-58
2023/04/06 06:12:40;;;;;;;142.73;11.77;;;;;;;;;;5020553;28;20096;-58
2023/04/06 06:15:06;;;;;;;144.38;10.25;;;;;;;;;;5020831;28;20052;-57
2023/04/06 06:17:31;;;;;;;116.80;9.30;;;;;;;;;;5019165;28;20034;-56
2023/04/06 06:19:56;;;;;;;119.75;8.75;;;;;;;;;;5021798;28;20069;-58
2023/04/06 06:22:21;;;;;;;112.43;9.07;;;;;;;;;;5019316;28;20096;-56
2023/04/06 06:24:47;;;;;;;144.97;11.30;;;;;;;;;;5019431;28;20024;-55
2023/04/06 06:27:12;;;;;;;166.38;11.15;;;;;;;;;;5017173;28;20259;-55
2023/04/06 06:29:37;;;;;;;125.75;8.45;;;;;;;;;;5020071;28;20269;-57
2023/04/06 06:32:02;;;;;;;112.43;9.77;;;;;;;;;;5020802;28;20562;-56
2023/04/06 06:34:28;;;;;;;153.75;9.57;;;;;;;;;;5018098;28;20024;-57
2023/04/06 06:36:55;;;;;;;127.25;10.10;;;;;;;;;;5019183;28;20525;-59
2023/04/06 06:39:20;;;;;;;134.65;9.07;;;;;;;;;;5018702;28;20097;-57
2023/04/06 06:41:45;;;;;;;95.85;8.48;;;;;;;;;;5019713;28;20071;-54
2023/04/06 06:44:10;;;;;;;116.17;10.03;;;;;;;;;;5020765;28;20114;-57
2023/04/06 06:46:36;;;;;;;145.95;10.02;;;;;;;;;;5016831;28;20342;-56
2023/04/06 06:49:01;;;;;;;132.43;8.50;;;;;;;;;;5018611;28;20025;-58
2023/04/06 06:51:26;;;;;;;125.80;8.75;;;;;;;;;;5017571;28;20029;-59
2023/04/06 06:53:52;;;;;;;107.30;7.68;;;;;;;;;;5020794;28;20097;-55
2023/04/06 06:56:17;;;;;;;186.98;11.07;;;;;;;;;;5018579;28;20455;-58
2023/04/06 06:58:42;;;;;;;124.63;7.60;;;;;;;;;;5019357;28;20488;-56
2023/04/06 07:01:07;;;;;;;108.00;7.87;;;;;;;;;;5017471;28;20296;-58
2023/04/06 07:03:33;;;;;;;117.75;8.68;;;;;;;;;;5018465;28;20269;-56
2023/04/06 07:05:59;;;;;;;105.33;7.67;;;;;;;;;;5016807;28;20045;-56
2023/04/06 07:08:24;;;;;;;80.82;7.85;;;;;;;;;;5018577;28;20298;-59
2023/04/06 07:10:52;;;;;;;98.70;7.70;;;;;;;;;;5017103;28;20495;-60
2023/04/06 07:13:22;;;;;;;115.22;8.88;;;;;;;;;;5014540;28;20038;-56
2023/04/06 07:15:48;;;;;;;93.47;8.43;;;;;;;;;;5017273;28;20256;-55
2023/04/06 07:18:13;;;;;;;125.75;9.20;;;;;;;;;;5015094;28;20099;-59
2023/04/06 07:20:38;;;;;;;106.95;8.88;;;;;;;;;;5016948;28;20497;-60
2023/04/06 07:23:04;;;;;;;94.05;8.38;;;;;;;;;;5019555;28;20039;-58
2023/04/06 07:25:29;;;;;;;128.02;9.55;;;;;;;;;;5019556;28;20140;-59
2023/04/06 07:27:55;;;;;;;104.78;8.57;;;;;;;;;;5017854;28;20029;-58
2023/04/06 07:30:21;;;;;;;106.78;8.93;;;;;;;;;;5017974;28;20376;-60
2023/04/06 07:32:47;;;;;;;109.28;9.13;;;;;;;;;;5016372;28;20456;-58
2023/04/06 07:35:12;;;;;;;109.72;9.43;;;;;;;;;;5019263;28;20037;-57
2023/04/06 07:37:37;;;;;;;116.55;8.68;;;;;;;;;;5015040;28;20316;-56
2023/04/06 07:40:03;;;;;;;88.30;7.63;;;;;;;;;;5018534;28;20065;-58
2023/04/06 07:42:28;;;;;;;85.07;8.25;;;;;;;;;;5019485;28;20648;-57
2023/04/06 07:44:53;;;;;;;129.73;9.93;;;;;;;;;;5014481;28;20018;-57
2023/04/06 07:47:19;;;;;;;111.80;8.77;;;;;;;;;;5015757;28;20018;-57
2023/04/06 07:49:45;;;;;;;105.32;9.18;;;;;;;;;;5019001;28;20317;-57
2023/04/06 07:52:10;;;;;;;96.45;9.13;;;;;;;;;;5017342;28;20040;-55
2023/04/06 07:54:35;;;;;;;94.53;8.52;;;;;;;;;;5017778;28;20017;-56
2023/04/06 07:57:00;;;;;;;114.43;9.50;;;;;;;;;;5017221;28;20784;-57
2023/04/06 07:59:26;;;;;;;105.87;9.67;;;;;;;;;;5016197;28;20263;-58
2023/04/06 08:01:51;;;;;;;101.80;9.03;;;;;;;;;;5015108;28;20314;-58
2023/04/06 08:04:16;;;;;;;113.20;9.33;;;;;;;;;;5018111;28;20360;-57
2023/04/06 08:06:42;;;;;;;97.67;8.57;;;;;;;;;;5017269;28;20280;-59
2023/04/06 08:09:07;;;;;;;128.65;9.25;;;;;;;;;;5016082;28;21106;-57
2023/04/06 08:11:32;;;;;;;108.50;8.63;;;;;;;;;;5016673;28;20064;-58
2023/04/06 08:13:58;;;;;;;103.00;9.15;;;;;;;;;;5015988;28;21000;-58
2023/04/06 08:16:23;;;;;;;142.32;10.95;;;;;;;;;;5013714;28;20091;-58
2023/04/06 08:18:49;;;;;;;96.63;10.07;;;;;;;;;;5016602;28;20114;-59
2023/04/06 08:21:14;;;;;;;103.28;9.20;;;;;;;;;;5016132;28;20034;-57
2023/04/06 08:23:40;;;;;;;121.05;9.35;;;;;;;;;;5018085;28;20045;-56
2023/04/06 08:26:05;;;;;;;167.55;10.48;;;;;;;;;;5009240;28;20034;-56
2023/04/06 08:28:30;;;;;;;105.45;8.23;;;;;;;;;;4993709;28;20104;-56
2023/04/06 08:30:55;;;;;;;109.15;8.88;;;;;;;;;;5004410;28;20037;-57
2023/04/06 08:33:21;;;;;;;94.40;8.33;;;;;;;;;;5016783;28;20037;-58
2023/04/06 08:35:46;;;;;;;143.80;10.23;;;;;;;;;;5017361;28;20835;-56
2023/04/06 08:38:11;;;;;;;96.00;8.88;;;;;;;;;;5015803;28;20142;-56
2023/04/06 08:40:37;;;;;;;103.13;8.43;;;;;;;;;;5015928;28;20036;-58
2023/04/06 08:43:03;;;;;;;131.00;10.45;;;;;;;;;;5017147;28;20635;-56
2023/04/06 08:45:29;;;;;;;109.35;9.10;;;;;;;;;;5015975;28;20467;-58
2023/04/06 08:47:58;;;;;;;105.57;9.18;;;;;;;;;;5015741;28;20021;-58
2023/04/06 08:50:24;;;;;;;93.72;7.43;;;;;;;;;;5015815;28;20029;-56
2023/04/06 08:52:50;;;;;;;105.13;9.60;;;;;;;;;;5016236;28;20028;-58
2023/04/06 08:55:15;;;;;;;131.52;9.68;;;;;;;;;;5014841;28;20017;-56
2023/04/06 08:57:41;;;;;;;108.20;9.02;;;;;;;;;;5016248;28;20021;-56
2023/04/06 09:00:07;;;;;;;107.53;8.05;;;;;;;;;;5014302;28;20060;-55
2023/04/06 09:02:33;;;;;;;107.47;8.68;;;;;;;;;;5016158;28;20068;-58
2023/04/06 09:04:58;;;;;;;101.60;9.20;;;;;;;;;;5017653;28;20025;-58
2023/04/06 09:07:24;;;;;;;126.35;9.15;;;;;;;;;;5014861;28;20037;-55
2023/04/06 09:09:51;;;;;;;114.43;9.10;;;;;;;;;;5016350;28;20026;-56
2023/04/06 09:12:30;;;;;;;103.15;9.85;;;;;;;;;;5015508;28;20036;-57
2023/04/06 09:14:55;;;;;;;122.65;8.30;;;;;;;;;;5014168;28;20069;-58
2023/04/06 09:17:23;;;;;;;113.10;9.85;;;;;;;;;;5034261;28;20306;-59
2023/04/06 09:19:49;;;;;;;136.55;10.27;;;;;;;;;;5036975;28;20210;-56
2023/04/06 09:22:14;;;;;;;102.45;8.90;;;;;;;;;;5036822;28;20120;-55
2023/04/06 09:24:41;;;;;;;104.00;9.00;;;;;;;;;;5036578;28;20029;-57
2023/04/06 09:27:06;;;;;;;115.20;9.30;;;;;;;;;;5035630;28;20465;-56
2023/04/06 09:29:31;;;;;;;110.47;9.57;;;;;;;;;;5037785;28;20704;-55
2023/04/06 09:32:07;;;;;;;134.10;10.27;;;;;;;;;;5034077;28;20029;-55
2023/04/06 09:34:33;;;;;;;109.70;8.80;;;;;;;;;;5035933;28;20319;-58
2023/04/06 09:36:58;;;;;;;134.70;9.77;;;;;;;;;;5035399;28;20060;-59
2023/04/06 09:39:23;;;;;;;108.38;8.65;;;;;;;;;;5036308;28;20025;-57
2023/04/06 09:41:52;;;;;;;131.43;9.90;;;;;;;;;;5034602;28;20040;-57
2023/04/06 09:44:18;;;;;;;135.20;9.65;;;;;;;;;;5036139;28;20028;-57
2023/04/06 09:46:45;;;;;;;119.22;8.93;;;;;;;;;;5033369;28;20041;-58
2023/04/06 09:49:11;;;;;;;127.72;9.80;;;;;;;;;;5037628;28;20028;-57
2023/04/06 09:51:38;;;;;;;125.18;9.63;;;;;;;;;;5035790;28;20037;-56
2023/04/06 09:54:04;;;;;;;106.30;8.15;;;;;;;;;;5035934;28;20549;-59
2023/04/06 09:56:38;;;;;;;148.32;10.15;;;;;;;;;;5034021;28;20095;-55
2023/04/06 09:59:08;;;;;;;136.68;8.98;;;;;;;;;;5035891;28;20176;-56
2023/04/06 10:01:35;;;;;;;109.20;8.73;;;;;;;;;;5035131;28;20791;-55
2023/04/06 10:04:03;;;;;;;106.32;8.80;;;;;;;;;;5038368;28;20098;-56
2023/04/06 10:06:32;;;;;;;115.38;8.93;;;;;;;;;;5033668;28;20117;-54
2023/04/06 10:08:58;;;;;;;115.72;8.15;;;;;;;;;;5037895;28;20253;-56
2023/04/06 10:11:23;;;;;;;100.30;8.73;;;;;;;;;;5038240;28;20106;-56
2023/04/06 10:13:49;;;;;;;143.15;9.90;;;;;;;;;;5038037;28;20305;-58
2023/04/06 10:16:15;;;;;;;170.75;10.23;;;;;;;;;;5038492;28;20052;-56
2023/04/06 10:18:44;;;;;;;109.70;8.60;;;;;;;;;;5039348;28;20027;-59
2023/04/06 10:21:11;;;;;;;117.68;8.43;;;;;;;;;;5039579;28;20064;-56
2023/04/06 10:23:43;;;;;;;123.80;8.40;;;;;;;;;;5040204;28;20112;-57
2023/04/06 10:26:13;;;;;;;223.07;11.88;;;;;;;;;;5039589;28;20066;-57
2023/04/06 10:28:40;;;;;;;112.03;8.45;;;;;;;;;;5041856;28;20025;-56
2023/04/06 10:31:06;;;;;;;149.55;9.43;;;;;;;;;;5037662;28;20025;-58
2023/04/06 10:33:32;;;;;;;109.28;8.30;;;;;;;;;;5039985;28;20021;-56
2023/04/06 10:35:57;;;;;;;110.05;8.23;;;;;;;;;;5038152;28;20033;-59
2023/04/06 10:38:35;;;;;;;150.32;9.95;;;;;;;;;;5037661;28;20024;-55
2023/04/06 10:41:04;;;;;;;118.00;8.50;;;;;;;;;;5033819;28;20314;-58
2023/04/06 10:43:32;;;;;;;129.48;8.93;;;;;;;;;;5040244;28;20068;-58
2023/04/06 10:45:59;;;;;;;104.93;8.05;;;;;;;;;;5039008;28;20097;-57
2023/04/06 10:48:25;;;;;;;122.95;8.57;;;;;;;;;;5038371;28;20062;-56
2023/04/06 10:50:52;;;;;;;99.03;7.70;;;;;;;;;;5036068;28;20048;-56
2023/04/06 10:53:21;;;;;;;131.48;9.07;;;;;;;;;;5038117;28;20035;-58
2023/04/06 10:55:47;;;;;;;152.75;9.18;;;;;;;;;;5038245;28;20057;-59
2023/04/06 10:58:12;;;;;;;122.63;9.02;;;;;;;;;;5038075;28;20180;-60
2023/04/06 11:00:43;;;;;;;120.57;8.50;;;;;;;;;;5037414;28;20044;-59
2023/04/06 11:03:08;;;;;;;116.25;7.93;;;;;;;;;;5037277;28;21079;-60
2023/04/06 11:05:35;;;;;;;110.60;8.32;;;;;;;;;;5038931;28;20842;-57
2023/04/06 11:08:00;;;;;;;111.82;8.68;;;;;;;;;;5038326;28;20032;-57
2023/04/06 11:10:25;;;;;;;86.87;7.23;;;;;;;;;;5039255;28;20342;-59
2023/04/06 11:12:54;;;;;;;116.38;8.93;;;;;;;;;;5038884;28;20272;-59
2023/04/06 11:15:20;;;;;;;122.97;8.80;;;;;;;;;;5036497;28;20037;-57
2023/04/06 11:17:45;;;;;;;131.32;8.45;;;;;;;;;;5037454;28;20032;-56
2023/04/06 11:20:11;;;;;;;162.18;10.20;;;;;;;;;;5035874;28;20053;-57
2023/04/06 11:22:36;;;;;;;147.48;9.73;;;;;;;;;;5041115;28;20029;-56
2023/04/06 11:25:06;;;;;;;122.05;8.43;;;;;;;;;;5037205;28;20017;-57
2023/04/06 11:27:31;;;;;;;144.13;9.38;;;;;;;;;;5037286;28;20032;-58
2023/04/06 11:29:58;;;;;;;119.60;8.45;;;;;;;;;;5039230;28;20029;-59
2023/04/06 11:32:24;;;;;;;140.77;9.45;;;;;;;;;;5037363;28;20969;-57
2023/04/06 11:34:49;;;;;;;104.63;7.85;;;;;;;;;;5052801;28;20017;-58
2023/04/06 11:37:15;;;;;;;128.15;8.30;;;;;;;;;;5034651;28;20040;-57
2023/04/06 11:39:50;;;;;;;172.38;10.00;;;;;;;;;;5037396;28;20096;-58
2023/04/06 11:42:23;;;;;;;108.25;6.40;;;;;;;;;;5036141;28;20067;-57
2023/04/06 11:44:49;;;;;;;152.98;8.80;;;;;;;;;;5037946;28;20021;-59
2023/04/06 11:47:15;;;;;;;131.65;8.05;;;;;;;;;;5035614;28;20041;-58
2023/04/06 11:49:41;;;;;;;122.22;8.10;;;;;;;;;;5037070;28;20028;-59
2023/04/06 11:52:15;;;;;;;148.45;8.13;;;;;;;;;;5037947;28;20033;-58
2023/04/06 11:54:41;;;;;;;138.50;8.65;;;;;;;;;;5040563;28;20083;-58
2023/04/06 11:57:07;;;;;;;150.77;9.02;;;;;;;;;;5038672;28;20472;-59
2023/04/06 11:59:33;;;;;;;134.77;8.25;;;;;;;;;;5038018;28;20087;-58
2023/04/06 12:01:58;;;;;;;116.05;8.02;;;;;;;;;;5039248;28;20037;-57
2023/04/06 12:04:24;;;;;;;148.55;8.70;;;;;;;;;;5036272;28;20583;-56
2023/04/06 12:06:49;;;;;;;138.98;8.75;;;;;;;;;;5037343;28;20073;-57
2023/04/06 12:09:15;;;;;;;169.98;9.98;;;;;;;;;;5038520;28;20032;-55
2023/04/06 12:11:40;;;;;;;141.68;9.43;;;;;;;;;;5022581;28;20040;-55
2023/04/06 12:14:07;;;;;;;127.55;7.82;;;;;;;;;;5037535;28;20029;-56
2023/04/06 12:16:32;;;;;;;197.82;9.55;;;;;;;;;;5035077;28;20128;-56
2023/04/06 12:18:58;;;;;;;155.55;8.77;;;;;;;;;;5033735;28;20104;-57
2023/04/06 12:21:23;;;;;;;148.23;9.48;;;;;;;;;;5037755;28;20045;-59
2023/04/06 12:23:48;;;;;;;161.73;10.10;;;;;;;;;;5036106;28;20082;-58
2023/04/06 12:26:13;;;;;;;212.07;11.68;;;;;;;;;;5050280;28;20508;-59
2023/04/06 12:28:39;;;;;;;139.75;9.30;;;;;;;;;;5037499;28;20021;-56
2023/04/06 12:31:04;;;;;;;145.50;9.40;;;;;;;;;;5035210;28;20102;-57
2023/04/06 12:33:30;;;;;;;126.65;8.75;;;;;;;;;;5035907;28;20388;-59
2023/04/06 12:35:55;;;;;;;145.13;7.35;;;;;;;;;;5036855;28;20037;-57
2023/04/06 12:38:21;;;;;;;131.68;8.02;;;;;;;;;;5037193;28;20029;-59
2023/04/06 12:40:46;;;;;;;133.02;9.07;;;;;;;;;;5036654;28;20029;-56
2023/04/06 12:43:12;;;;;;;186.63;8.48;;;;;;;;;;5036891;28;20058;-56
2023/04/06 12:45:38;;;;;;;148.40;9.07;;;;;;;;;;5035620;28;20151;-55
2023/04/06 12:48:03;;;;;;;141.63;8.18;;;;;;;;;;5035772;28;20061;-56
2023/04/06 12:50:29;;;;;;;145.52;8.35;;;;;;;;;;5036935;28;20027;-56
2023/04/06 12:52:54;;;;;;;133.07;7.63;;;;;;;;;;5034833;28;20043;-56
2023/04/06 12:55:21;;;;;;;157.98;9.38;;;;;;;;;;5034909;28;20027;-55
2023/04/06 12:57:46;;;;;;;134.48;8.38;;;;;;;;;;5035102;28;20024;-57
2023/04/06 13:00:12;;;;;;;116.95;8.23;;;;;;;;;;5033742;28;20025;-58
2023/04/06 13:02:37;;;;;;;183.07;9.98;;;;;;;;;;5037885;28;20478;-56
2023/04/06 13:05:02;;;;;;;129.63;8.63;;;;;;;;;;5035886;28;20009;-57
2023/04/06 13:07:28;;;;;;;132.27;7.97;;;;;;;;;;5034245;28;20037;-57
2023/04/06 13:09:53;;;;;;;144.27;10.07;;;;;;;;;;5034791;28;20147;-57
2023/04/06 13:12:19;;;;;;;146.50;9.05;;;;;;;;;;5036731;28;21255;-58
2023/04/06 13:14:47;;;;;;;180.15;9.43;;;;;;;;;;5035659;28;20048;-56
2023/04/06 13:17:12;;;;;;;147.10;9.45;;;;;;;;;;5035019;28;20048;-58
2023/04/06 13:19:37;;;;;;;160.35;9.68;;;;;;;;;;5035817;28;20026;-56
2023/04/06 13:22:03;;;;;;;170.02;9.98;;;;;;;;;;5032739;28;20033;-58
2023/04/06 13:24:28;;;;;;;150.25;9.40;;;;;;;;;;5034531;28;20806;-56
2023/04/06 13:26:53;;;;;;;92.20;7.28;;;;;;;;;;5037737;28;20086;-57
2023/04/06 13:29:18;;;;;;;160.93;9.63;;;;;;;;;;5040050;28;20582;-59
2023/04/06 13:31:44;;;;;;;141.98;8.23;;;;;;;;;;5035021;28;20090;-58
2023/04/06 13:34:09;;;;;;;161.38;9.05;;;;;;;;;;5035398;28;20020;-58
2023/04/06 13:36:35;;;;;;;147.93;9.27;;;;;;;;;;5035287;28;20081;-58
2023/04/06 13:39:00;;;;;;;162.48;8.05;;;;;;;;;;5037022;28;20021;-56
2023/04/06 13:41:26;;;;;;;183.82;9.80;;;;;;;;;;5033612;28;20409;-56
2023/04/06 13:43:52;;;;;;;111.60;7.93;;;;;;;;;;5038696;28;20477;-56
2023/04/06 13:46:17;;;;;;;140.90;8.98;;;;;;;;;;5036745;28;20037;-55
2023/04/06 13:48:43;;;;;;;153.85;8.88;;;;;;;;;;5039257;28;20075;-56
2023/04/06 13:51:09;;;;;;;130.10;8.55;;;;;;;;;;5038206;28;20029;-56
2023/04/06 13:53:34;;;;;;;164.07;9.40;;;;;;;;;;5038426;28;20048;-55
2023/04/06 13:56:00;;;;;;;159.13;9.37;;;;;;;;;;5037692;28;20120;-54
2023/04/06 13:58:25;;;;;;;111.00;7.65;;;;;;;;;;5038933;28;20303;-55
2023/04/06 14:00:50;;;;;;;157.27;9.98;;;;;;;;;;5037037;28;20029;-59
2023/04/06 14:03:16;;;;;;;130.98;9.02;;;;;;;;;;5041263;28;20033;-57
2023/04/06 14:05:41;;;;;;;144.30;9.27;;;;;;;;;;5039505;28;20508;-57
2023/04/06 14:08:06;;;;;;;157.80;9.98;;;;;;;;;;5037898;28;20565;-57